Airfield :
LOGIN :

Register | Disclaimer

   EN    FR    IT 

 










Legend :    VFR   Marginal VFR   IFR   Intensive IFR   Very Intensive IFR
Visi :
Ceiling :
>= 8 km
>= 3000ft
5 to 8 km
1000 to 3000 ft
1500m to 5 km
500 to 1000 ft
800 to 1500m
200 to 500 ft
< 800m
< 200 ft
Symbols :   Thunderstorms  Fog  Heavy snow  Heavy precipitations  Wind > 20 kt
SIGMETs :     Misc.  Thunderstorms  Icing  Turbulence  Mountain Waves  Volcanic Ashes






- Airport Elevation : 295 ft
- IATA code : BWE


EDVE - Braunschweig

CURRENT METAR :
  • 280120Z AUTO 29014KT 7000 // SCT019/// BKN027/// OVC036/// 07/05 Q1015

EXPIRED METARs :
  • 280050Z AUTO 29009KT 260V330 9999 // OVC030/// 09/06 Q1016
  • 280020Z AUTO 28012KT 9999 // BKN037/// OVC047/// 09/06 Q1016
  • 272350Z AUTO 28010KT 9999 // SCT031/// OVC063/// 11/06 Q1016
  • 272320Z AUTO 28011KT 250V310 9999 // FEW033/// SCT041/// BKN078/// 10/06 Q1016
  • 272250Z AUTO 30011KT 260V330 9999 // FEW030/// BKN034/// BKN043/// 10/06 Q1016

Expired Forecast.



MET'MAP, your aeronautical weather chart ! - Copyright ORBIFLY December 2007 - Disclaimer

ORBIFLY MET'MAP TEAM :

Programming & Development : Alexandra Zaïnal
Original concept : Baudouin d'Aumeries
Technical & hardware support : Manuel Goepfert
Assistance : Marc-Olivier Méhu

Contact : metmap@orbifly.com




SOURCES & CREDITS :

   NOAA